createdAt,value
2023-04-18T00:00:56.483Z,7.35
2023-04-18T00:03:23.971Z,10.82
2023-04-18T00:05:51.894Z,7.40
2023-04-18T00:08:19.021Z,7.03
2023-04-18T00:10:46.167Z,10.57
2023-04-18T00:13:13.368Z,11.23
2023-04-18T00:15:43.851Z,10.00
2023-04-18T00:18:11.300Z,6.80
2023-04-18T00:20:39.291Z,7.55
2023-04-18T00:23:07.836Z,9.20
2023-04-18T00:25:35.050Z,8.43
2023-04-18T00:28:02.267Z,8.70
2023-04-18T00:30:29.491Z,6.53
2023-04-18T00:32:56.742Z,7.32
2023-04-18T00:35:24.894Z,8.15
2023-04-18T00:37:52.105Z,8.55
2023-04-18T00:40:19.383Z,9.18
2023-04-18T00:42:46.577Z,9.55
2023-04-18T00:45:13.730Z,8.70
2023-04-18T00:47:40.905Z,6.03
2023-04-18T00:50:08.738Z,8.50
2023-04-18T00:52:36.043Z,7.13
2023-04-18T00:55:04.850Z,8.23
2023-04-18T00:57:32.060Z,8.50
2023-04-18T01:00:00.618Z,8.10
2023-04-18T01:02:31.132Z,6.38
2023-04-18T01:04:58.684Z,7.10
2023-04-18T01:07:26.564Z,8.48
2023-04-18T01:09:54.017Z,7.40
2023-04-18T01:12:21.181Z,6.40
2023-04-18T01:14:48.356Z,8.18
2023-04-18T01:17:16.261Z,6.35
2023-04-18T01:19:44.462Z,7.90
2023-04-18T01:22:14.190Z,8.07
2023-04-18T01:24:42.066Z,8.00
2023-04-18T01:27:11.623Z,6.05
2023-04-18T01:29:39.064Z,6.35
2023-04-18T01:32:06.777Z,6.00
2023-04-18T01:34:33.985Z,8.95
2023-04-18T01:37:01.198Z,5.78
2023-04-18T01:39:29.052Z,9.88
2023-04-18T01:41:56.221Z,7.32
2023-04-18T01:44:23.415Z,8.57
2023-04-18T01:46:50.797Z,5.22
2023-04-18T01:49:18.029Z,9.10
2023-04-18T01:51:45.248Z,5.85
2023-04-18T01:54:12.672Z,8.65
2023-04-18T01:56:40.017Z,6.45
2023-04-18T01:59:07.195Z,8.88
2023-04-18T02:01:34.613Z,6.35
2023-04-18T02:04:01.940Z,5.18
2023-04-18T02:06:29.194Z,5.65
2023-04-18T02:08:56.367Z,5.50
2023-04-18T02:11:23.508Z,5.45
2023-04-18T02:13:50.668Z,4.85
2023-04-18T02:16:17.825Z,7.35
2023-04-18T02:18:45.423Z,5.18
2023-04-18T02:21:12.677Z,6.03
2023-04-18T02:23:39.857Z,6.47
2023-04-18T02:26:07.184Z,6.00
2023-04-18T02:28:34.407Z,7.00
2023-04-18T02:31:01.584Z,5.10
2023-04-18T02:33:29.248Z,5.82
2023-04-18T02:35:56.507Z,6.05
2023-04-18T02:38:23.602Z,4.78
2023-04-18T02:40:50.947Z,5.05
2023-04-18T02:43:18.105Z,6.43
2023-04-18T02:45:45.305Z,5.47
2023-04-18T02:48:12.473Z,6.32
2023-04-18T02:50:39.702Z,5.03
2023-04-18T02:53:07.401Z,5.22
2023-04-18T02:55:34.506Z,4.97
2023-04-18T02:58:01.699Z,5.43
2023-04-18T03:00:28.930Z,4.70
2023-04-18T03:02:56.221Z,6.50
2023-04-18T03:05:23.677Z,4.97
2023-04-18T03:07:50.824Z,5.57
2023-04-18T03:10:18.058Z,6.95
2023-04-18T03:12:45.235Z,6.05
2023-04-18T03:15:12.403Z,5.47
2023-04-18T03:17:40.052Z,7.85
2023-04-18T03:20:08.062Z,4.80
2023-04-18T03:22:35.183Z,5.45
2023-04-18T03:25:02.378Z,5.05
2023-04-18T03:27:29.597Z,5.03
2023-04-18T03:29:56.727Z,6.85
2023-04-18T03:32:23.889Z,7.35
2023-04-18T03:34:52.017Z,6.60
2023-04-18T03:37:19.263Z,4.70
2023-04-18T03:39:46.433Z,6.45
2023-04-18T03:42:13.628Z,6.68
2023-04-18T03:44:40.761Z,8.60
2023-04-18T03:47:07.934Z,6.13
2023-04-18T03:49:35.377Z,7.22
2023-04-18T03:52:02.671Z,5.90
2023-04-18T03:54:29.843Z,6.13
2023-04-18T03:56:59.349Z,6.05
2023-04-18T03:59:26.857Z,5.97
2023-04-18T04:01:54.042Z,9.93
2023-04-18T04:04:21.382Z,5.47
2023-04-18T04:06:48.562Z,6.97
2023-04-18T04:09:15.859Z,5.90
2023-04-18T04:11:43.352Z,5.03
2023-04-18T04:14:10.462Z,7.47
2023-04-18T04:16:37.696Z,8.85
2023-04-18T04:19:04.962Z,7.60
2023-04-18T04:21:32.126Z,7.38
2023-04-18T04:23:59.238Z,8.85
2023-04-18T04:26:27.604Z,9.80
2023-04-18T04:28:54.782Z,6.57
2023-04-18T04:31:22.262Z,10.65
2023-04-18T04:33:49.606Z,11.98
2023-04-18T04:36:18.800Z,9.25
2023-04-18T04:38:47.298Z,6.72
2023-04-18T04:41:14.944Z,11.65
2023-04-18T04:43:42.883Z,7.20
2023-04-18T04:46:10.076Z,8.63
2023-04-18T04:48:37.344Z,16.40
2023-04-18T04:51:05.537Z,11.50
2023-04-18T04:53:32.771Z,12.02
2023-04-18T04:56:00.006Z,8.45
2023-04-18T04:58:27.296Z,9.55
2023-04-18T05:00:54.867Z,10.38
2023-04-18T05:03:22.287Z,8.88
2023-04-18T05:05:49.598Z,9.57
2023-04-18T05:08:16.773Z,9.73
2023-04-18T05:10:44.418Z,9.60
2023-04-18T05:13:11.597Z,12.43
2023-04-18T05:15:40.272Z,8.43
2023-04-18T05:18:07.681Z,7.90
2023-04-18T05:20:35.041Z,12.95
2023-04-18T05:23:02.182Z,13.85
2023-04-18T05:25:29.900Z,10.75
2023-04-18T05:27:57.207Z,14.52
2023-04-18T05:30:24.338Z,9.23
2023-04-18T05:32:51.559Z,10.57
2023-04-18T05:35:18.807Z,9.93
2023-04-18T05:37:46.031Z,10.88
2023-04-18T05:40:13.601Z,12.18
2023-04-18T05:42:41.030Z,7.65
2023-04-18T05:45:08.521Z,12.40
2023-04-18T05:47:35.821Z,8.07
2023-04-18T05:50:02.988Z,13.77
2023-04-18T05:52:30.205Z,6.78
2023-04-18T05:54:57.328Z,6.65
2023-04-18T05:57:24.527Z,9.10
2023-04-18T05:59:51.679Z,10.35
2023-04-18T06:02:18.967Z,8.52
2023-04-18T06:04:46.362Z,6.30
2023-04-18T06:07:13.751Z,8.48
2023-04-18T06:09:41.131Z,8.90
2023-04-18T06:12:08.303Z,8.23
2023-04-18T06:14:35.446Z,8.48
2023-04-18T06:17:02.628Z,7.70
2023-04-18T06:19:29.851Z,8.73
2023-04-18T06:21:57.015Z,6.35
2023-04-18T06:24:24.353Z,8.43
2023-04-18T06:26:51.998Z,6.47
2023-04-18T06:29:19.201Z,10.27
2023-04-18T06:31:48.252Z,7.28
2023-04-18T06:34:16.001Z,7.00
2023-04-18T06:36:43.444Z,9.07
2023-04-18T06:39:10.551Z,6.65
2023-04-18T06:41:37.763Z,6.97
2023-04-18T06:44:05.017Z,7.13
2023-04-18T06:46:32.820Z,6.53
2023-04-18T06:49:00.062Z,6.10
2023-04-18T06:51:27.473Z,7.05
2023-04-18T06:53:54.702Z,6.43
2023-04-18T06:56:21.975Z,5.63
2023-04-18T06:58:49.661Z,12.65
2023-04-18T07:01:16.975Z,5.95
2023-04-18T07:03:44.384Z,11.63
2023-04-18T07:06:11.656Z,9.45
2023-04-18T07:08:38.930Z,9.55
2023-04-18T07:11:06.701Z,6.28
2023-04-18T07:13:33.820Z,8.57
2023-04-18T07:16:01.502Z,6.53
2023-04-18T07:18:37.299Z,6.78
2023-04-18T07:21:07.513Z,6.97
2023-04-18T07:23:35.122Z,6.13
2023-04-18T07:26:03.087Z,6.20
2023-04-18T07:28:31.926Z,8.55
2023-04-18T07:30:59.654Z,9.70
2023-04-18T07:33:26.984Z,7.60
2023-04-18T07:35:54.132Z,7.15
2023-04-18T07:38:21.549Z,5.85
2023-04-18T07:40:56.622Z,5.63
2023-04-18T07:43:24.105Z,7.45
2023-04-18T07:45:52.042Z,6.28
2023-04-18T07:48:22.214Z,6.60
2023-04-18T07:50:49.794Z,7.15
2023-04-18T07:53:16.996Z,6.05
2023-04-18T07:55:44.521Z,6.13
2023-04-18T07:58:11.812Z,5.80
2023-04-18T08:00:39.649Z,6.32
2023-04-18T08:03:07.715Z,7.15
2023-04-18T08:05:35.475Z,6.93
2023-04-18T08:08:02.869Z,6.00
2023-04-18T08:10:30.153Z,7.40
2023-04-18T08:12:57.407Z,8.27
2023-04-18T08:15:24.649Z,7.28
2023-04-18T08:17:51.921Z,8.35
2023-04-18T08:20:19.140Z,7.78
2023-04-18T08:23:02.068Z,9.43
2023-04-18T08:25:33.384Z,6.45
2023-04-18T08:28:00.697Z,10.93
2023-04-18T08:30:28.069Z,9.95
2023-04-18T08:32:55.442Z,8.50
2023-04-18T08:35:22.860Z,8.02
2023-04-18T08:37:50.046Z,12.07
2023-04-18T08:40:17.367Z,10.68
2023-04-18T08:42:47.436Z,9.02
2023-04-18T08:45:14.898Z,9.32
2023-04-18T08:47:42.630Z,7.47
2023-04-18T08:50:10.933Z,10.63
2023-04-18T08:52:39.919Z,8.52
2023-04-18T08:55:07.456Z,9.88
2023-04-18T08:57:36.377Z,11.13
2023-04-18T09:00:10.104Z,9.68
2023-04-18T09:02:46.990Z,7.68
2023-04-18T09:05:21.495Z,11.98
2023-04-18T09:07:49.825Z,7.30
2023-04-18T09:10:28.889Z,10.60
2023-04-18T09:12:56.932Z,8.43
2023-04-18T09:15:27.012Z,9.88
2023-04-18T09:17:56.206Z,9.02
2023-04-18T09:20:30.815Z,11.23
2023-04-18T09:23:00.677Z,9.73
2023-04-18T09:25:36.144Z,8.77
2023-04-18T09:28:04.634Z,8.07
2023-04-18T09:30:39.473Z,12.63
2023-04-18T09:33:09.460Z,8.07
2023-04-18T09:35:37.987Z,9.93
2023-04-18T09:38:05.777Z,8.15
2023-04-18T09:40:33.394Z,11.23
2023-04-18T09:43:00.706Z,9.13
2023-04-18T09:45:28.165Z,9.70
2023-04-18T09:47:55.845Z,10.00
2023-04-18T09:50:23.153Z,9.82
2023-04-18T09:52:50.384Z,8.52
2023-04-18T09:55:18.382Z,8.48
2023-04-18T09:57:46.993Z,7.80
2023-04-18T10:00:17.121Z,8.63
2023-04-18T10:02:49.368Z,9.02
2023-04-18T10:05:19.521Z,7.75
2023-04-18T10:07:49.189Z,7.38
2023-04-18T10:10:16.961Z,5.45
2023-04-18T10:12:44.793Z,7.45
2023-04-18T10:15:13.102Z,8.57
2023-04-18T10:18:03.491Z,8.57
2023-04-18T10:20:33.270Z,9.18
2023-04-18T10:23:00.998Z,7.13
2023-04-18T10:25:40.231Z,7.57
2023-04-18T10:28:07.942Z,7.57
2023-04-18T10:30:56.159Z,5.60
2023-04-18T10:33:30.973Z,6.63
2023-04-18T10:36:13.775Z,7.50
2023-04-18T10:38:45.682Z,5.63
2023-04-18T10:41:15.975Z,7.43
2023-04-18T10:44:01.780Z,6.57
2023-04-18T10:46:32.254Z,6.55
2023-04-18T10:49:18.509Z,4.20
2023-04-18T10:51:46.521Z,7.07
2023-04-18T10:54:18.231Z,7.10
2023-04-18T10:56:52.994Z,6.20
2023-04-18T10:59:20.767Z,4.95
2023-04-18T11:01:50.148Z,5.78
2023-04-18T11:04:17.689Z,7.72
2023-04-18T11:06:53.148Z,6.32
2023-04-18T11:09:20.330Z,4.15
2023-04-18T11:11:47.498Z,6.45
2023-04-18T11:14:14.820Z,6.43
2023-04-18T11:16:42.252Z,4.65
2023-04-18T11:19:19.950Z,6.40
2023-04-18T11:21:47.109Z,5.50
2023-04-18T11:24:22.012Z,6.68
2023-04-18T11:26:49.181Z,5.10
2023-04-18T11:29:18.556Z,6.13
2023-04-18T11:31:55.273Z,5.47
2023-04-18T11:34:29.450Z,4.82
2023-04-18T11:36:56.592Z,4.63
2023-04-18T11:39:24.134Z,5.88
2023-04-18T11:41:51.561Z,9.05
2023-04-18T11:44:19.514Z,6.95
2023-04-18T11:46:47.703Z,6.45
2023-04-18T11:49:33.514Z,19.58
2023-04-18T11:52:01.513Z,8.43
2023-04-18T11:54:38.777Z,8.90
2023-04-18T11:57:06.420Z,12.40
2023-04-18T11:59:33.712Z,7.32
2023-04-18T12:02:15.257Z,9.05
2023-04-18T12:04:51.989Z,8.55
2023-04-18T12:07:32.936Z,5.88
2023-04-18T12:10:00.088Z,6.22
2023-04-18T12:12:27.260Z,8.30
2023-04-18T12:15:01.345Z,6.95
2023-04-18T12:17:28.815Z,6.82
2023-04-18T12:19:56.000Z,7.35
2023-04-18T12:23:02.323Z,6.97
2023-04-18T12:25:29.563Z,7.22
2023-04-18T12:28:01.320Z,5.68
2023-04-18T12:30:32.084Z,6.90
2023-04-18T12:33:03.745Z,7.53
2023-04-18T12:35:31.955Z,8.68
2023-04-18T12:38:00.243Z,7.45
2023-04-18T12:40:28.061Z,7.35
2023-04-18T12:42:55.540Z,6.32
2023-04-18T12:45:23.591Z,5.28
2023-04-18T12:47:51.837Z,7.63
2023-04-18T12:50:20.576Z,6.28
2023-04-18T12:52:47.978Z,6.65
2023-04-18T12:55:15.536Z,4.90
2023-04-18T12:57:44.524Z,5.82
2023-04-18T13:00:13.952Z,5.28
2023-04-18T13:02:43.626Z,5.78
2023-04-18T13:05:11.870Z,4.70
2023-04-18T13:07:40.580Z,7.63
2023-04-18T13:10:08.867Z,6.57
2023-04-18T13:12:36.200Z,6.57
2023-04-18T13:15:03.585Z,5.72
2023-04-18T13:17:30.838Z,7.97
2023-04-18T13:19:58.029Z,5.97
2023-04-18T13:22:25.468Z,6.82
2023-04-18T13:24:53.108Z,6.97
2023-04-18T13:27:20.357Z,4.65
2023-04-18T13:29:47.558Z,7.70
2023-04-18T13:32:14.893Z,11.65
2023-04-18T13:34:44.413Z,6.15
2023-04-18T13:37:11.673Z,6.88
2023-04-18T13:39:39.101Z,7.47
2023-04-18T13:42:07.571Z,7.20
2023-04-18T13:44:35.865Z,6.47
2023-04-18T13:47:05.102Z,6.82
2023-04-18T13:49:32.666Z,12.80
2023-04-18T13:52:00.044Z,8.35
2023-04-18T13:54:28.049Z,7.20
2023-04-18T13:56:57.052Z,5.72
2023-04-18T13:59:24.888Z,7.60
2023-04-18T14:01:54.743Z,7.15
2023-04-18T14:04:22.864Z,8.70
2023-04-18T14:06:50.794Z,6.25
2023-04-18T14:09:18.301Z,5.75
2023-04-18T14:11:45.720Z,8.13
2023-04-18T14:14:13.132Z,5.10
2023-04-18T14:16:40.264Z,7.45
2023-04-18T14:19:07.585Z,6.68
2023-04-18T14:21:34.759Z,5.78
2023-04-18T14:24:02.032Z,5.82
2023-04-18T14:26:29.222Z,8.60
2023-04-18T14:28:56.513Z,4.95
2023-04-18T14:31:23.726Z,7.07
2023-04-18T14:33:50.908Z,5.50
2023-04-18T14:36:18.292Z,6.40
2023-04-18T14:38:48.578Z,5.30
2023-04-18T14:41:15.746Z,4.85
2023-04-18T14:43:42.929Z,4.90
2023-04-18T14:46:14.173Z,4.22
2023-04-18T14:48:41.515Z,5.32
2023-04-18T14:51:08.676Z,4.55
2023-04-18T14:53:35.838Z,4.63
2023-04-18T14:56:03.029Z,7.28
2023-04-18T14:58:30.523Z,5.30
2023-04-18T15:00:57.652Z,4.40
2023-04-18T15:03:25.183Z,8.02
2023-04-18T15:05:53.200Z,6.78
2023-04-18T15:08:20.699Z,3.83
2023-04-18T15:10:48.144Z,7.60
2023-04-18T15:13:15.803Z,5.13
2023-04-18T15:15:43.091Z,3.75
2023-04-18T15:18:11.235Z,5.00
2023-04-18T15:20:39.530Z,7.75
2023-04-18T15:23:07.003Z,4.53
2023-04-18T15:25:35.123Z,5.03
2023-04-18T15:28:02.317Z,4.57
2023-04-18T15:30:29.591Z,7.10
2023-04-18T15:32:57.165Z,6.82
2023-04-18T15:35:24.444Z,4.75
2023-04-18T15:37:53.717Z,4.07
2023-04-18T15:40:20.958Z,5.05
2023-04-18T15:42:49.528Z,5.25
2023-04-18T15:45:16.672Z,3.80
2023-04-18T15:47:44.246Z,4.35
2023-04-18T15:50:12.146Z,6.72
2023-04-18T15:52:41.619Z,5.82
2023-04-18T15:55:10.861Z,6.35
2023-04-18T15:57:38.045Z,5.10
2023-04-18T16:00:10.147Z,4.70
2023-04-18T16:02:37.528Z,6.10
2023-04-18T16:05:05.412Z,4.45
2023-04-18T16:07:32.620Z,6.68
2023-04-18T16:10:02.565Z,4.82
2023-04-18T16:12:29.857Z,3.42
2023-04-18T16:14:57.028Z,3.28
2023-04-18T16:17:24.216Z,4.65
2023-04-18T16:19:51.428Z,3.75
2023-04-18T16:22:18.574Z,5.22
2023-04-18T16:24:45.723Z,5.10
2023-04-18T16:27:13.137Z,3.55
2023-04-18T16:29:40.496Z,5.72
2023-04-18T16:32:08.402Z,4.88
2023-04-18T16:34:35.708Z,7.25
2023-04-18T16:37:02.871Z,5.78
2023-04-18T16:39:31.042Z,3.67
2023-04-18T16:41:58.201Z,3.70
2023-04-18T16:44:25.723Z,4.50
2023-04-18T16:46:52.862Z,3.63
2023-04-18T16:49:20.530Z,3.25
2023-04-18T16:51:47.739Z,3.78
2023-04-18T16:54:15.186Z,3.85
2023-04-18T16:56:44.489Z,3.13
2023-04-18T16:59:11.710Z,5.35
2023-04-18T17:01:38.884Z,3.17
2023-04-18T17:04:06.327Z,3.15
2023-04-18T17:06:33.961Z,3.20
2023-04-18T17:09:01.320Z,4.88
2023-04-18T17:11:30.700Z,3.17
2023-04-18T17:13:57.843Z,3.20
2023-04-18T17:16:25.225Z,3.65
2023-04-18T17:18:52.490Z,4.60
2023-04-18T17:21:19.741Z,5.85
2023-04-18T17:23:47.480Z,5.25
2023-04-18T17:26:14.671Z,6.93
2023-04-18T17:28:41.840Z,5.57
2023-04-18T17:31:09.010Z,5.75
2023-04-18T17:33:36.228Z,5.43
2023-04-18T17:36:06.033Z,3.60
2023-04-18T17:38:33.489Z,4.07
2023-04-18T17:41:01.248Z,3.85
2023-04-18T17:43:28.644Z,3.67
2023-04-18T17:45:56.932Z,4.95
2023-04-18T17:48:24.171Z,3.63
2023-04-18T17:50:51.288Z,5.03
2023-04-18T17:53:18.875Z,6.07
2023-04-18T17:55:49.032Z,4.22
2023-04-18T17:58:16.942Z,4.95
2023-04-18T18:00:44.056Z,3.80
2023-04-18T18:03:13.961Z,3.88
2023-04-18T18:05:41.953Z,3.97
2023-04-18T18:08:09.189Z,5.22
2023-04-18T18:10:36.295Z,3.05
2023-04-18T18:13:03.552Z,3.53
2023-04-18T18:15:31.276Z,4.13
2023-04-18T18:17:58.582Z,3.55
2023-04-18T18:20:27.306Z,3.13
2023-04-18T18:22:55.015Z,4.10
2023-04-18T18:25:22.277Z,3.53
2023-04-18T18:27:51.214Z,3.67
2023-04-18T18:30:18.901Z,5.15
2023-04-18T18:32:46.300Z,3.38
2023-04-18T18:35:13.550Z,4.78
2023-04-18T18:37:41.038Z,4.50
2023-04-18T18:40:08.669Z,3.88
2023-04-18T18:42:35.852Z,4.30
2023-04-18T18:45:03.942Z,5.20
2023-04-18T18:47:31.161Z,3.38
2023-04-18T18:49:58.324Z,5.28
2023-04-18T18:52:27.984Z,5.32
2023-04-18T18:54:55.299Z,3.13
2023-04-18T18:57:22.698Z,3.65
2023-04-18T18:59:50.313Z,5.05
2023-04-18T19:02:17.620Z,4.45
2023-04-18T19:04:45.342Z,6.00
2023-04-18T19:07:12.534Z,4.70
2023-04-18T19:09:39.758Z,4.90
2023-04-18T19:12:07.206Z,3.35
2023-04-18T19:14:34.425Z,4.78
2023-04-18T19:17:01.595Z,5.13
2023-04-18T19:19:28.885Z,4.30
2023-04-18T19:21:56.425Z,4.18
2023-04-18T19:24:23.551Z,3.25
2023-04-18T19:26:50.841Z,3.70
2023-04-18T19:29:18.129Z,3.70
2023-04-18T19:31:45.638Z,3.72
2023-04-18T19:34:13.445Z,3.30
2023-04-18T19:36:40.623Z,3.88
2023-04-18T19:39:07.753Z,3.70
2023-04-18T19:41:34.866Z,3.28
2023-04-18T19:44:02.255Z,3.20
2023-04-18T19:46:29.543Z,3.58
2023-04-18T19:48:56.731Z,3.33
2023-04-18T19:51:23.863Z,5.65
2023-04-18T19:53:51.024Z,3.20
2023-04-18T19:56:18.136Z,3.70
2023-04-18T19:58:46.092Z,3.30
2023-04-18T20:01:13.880Z,3.13
2023-04-18T20:03:41.686Z,3.60
2023-04-18T20:06:09.551Z,4.05
2023-04-18T20:08:37.671Z,3.47
2023-04-18T20:11:07.234Z,3.75
2023-04-18T20:13:36.569Z,3.47
2023-04-18T20:16:07.488Z,4.95
2023-04-18T20:18:35.919Z,5.55
2023-04-18T20:21:03.527Z,3.00
2023-04-18T20:23:31.325Z,3.10
2023-04-18T20:25:58.860Z,4.57
2023-04-18T20:28:26.037Z,3.70
2023-04-18T20:30:53.420Z,4.43
2023-04-18T20:33:20.847Z,3.72
2023-04-18T20:35:47.995Z,3.40
2023-04-18T20:38:15.378Z,4.28
2023-04-18T20:40:44.816Z,3.53
2023-04-18T20:43:13.490Z,5.75
2023-04-18T20:45:42.871Z,7.30
2023-04-18T20:48:10.450Z,4.00
2023-04-18T20:50:40.046Z,3.15
2023-04-18T20:53:07.220Z,3.50
2023-04-18T20:55:34.415Z,3.42
2023-04-18T20:58:01.595Z,4.05
2023-04-18T21:00:29.052Z,5.82
2023-04-18T21:02:56.464Z,4.93
2023-04-18T21:05:23.795Z,3.67
2023-04-18T21:07:50.938Z,4.43
2023-04-18T21:10:18.069Z,4.85
2023-04-18T21:12:46.272Z,3.50
2023-04-18T21:15:13.638Z,4.80
2023-04-18T21:17:40.852Z,4.03
2023-04-18T21:20:09.035Z,3.63
2023-04-18T21:22:36.379Z,3.50
2023-04-18T21:25:04.400Z,4.75
2023-04-18T21:27:31.551Z,3.58
2023-04-18T21:29:58.736Z,4.10
2023-04-18T21:32:26.001Z,5.40
2023-04-18T21:34:53.174Z,4.40
2023-04-18T21:37:20.487Z,4.95
2023-04-18T21:39:47.658Z,4.68
2023-04-18T21:42:14.790Z,6.25
2023-04-18T21:44:41.928Z,4.95
2023-04-18T21:47:09.104Z,5.47
2023-04-18T21:49:36.272Z,4.15
2023-04-18T21:52:03.457Z,4.40
2023-04-18T21:54:30.817Z,4.72
2023-04-18T21:56:58.275Z,3.80
2023-04-18T21:59:25.414Z,4.72
2023-04-18T22:01:52.547Z,5.78
2023-04-18T22:04:21.876Z,4.03
2023-04-18T22:06:49.322Z,3.97
2023-04-18T22:09:19.182Z,4.43
2023-04-18T22:11:46.548Z,3.58
2023-04-18T22:14:16.782Z,5.05
2023-04-18T22:16:44.943Z,4.85
2023-04-18T22:19:12.547Z,4.10
2023-04-18T22:21:39.756Z,3.90
2023-04-18T22:24:07.210Z,4.80
2023-04-18T22:26:34.333Z,5.03
2023-04-18T22:29:01.524Z,5.72
2023-04-18T22:31:28.776Z,3.97
2023-04-18T22:33:56.085Z,5.30
2023-04-18T22:36:23.298Z,5.45
2023-04-18T22:38:50.656Z,3.97
2023-04-18T22:41:17.819Z,4.13
2023-04-18T22:43:45.168Z,3.70
2023-04-18T22:46:12.371Z,4.25
2023-04-18T22:48:39.578Z,4.00
2023-04-18T22:51:06.733Z,4.80
2023-04-18T22:53:33.962Z,3.80
2023-04-18T22:56:01.134Z,3.78
2023-04-18T22:58:28.406Z,4.30
2023-04-18T23:00:55.847Z,4.18
2023-04-18T23:03:23.571Z,3.80
2023-04-18T23:05:50.864Z,4.10
2023-04-18T23:08:22.551Z,3.40
2023-04-18T23:10:49.824Z,4.00
2023-04-18T23:13:16.976Z,3.95
2023-04-18T23:15:44.215Z,3.70
2023-04-18T23:18:11.404Z,3.40
2023-04-18T23:20:38.588Z,3.53
2023-04-18T23:23:05.850Z,3.60
2023-04-18T23:25:33.674Z,6.22
2023-04-18T23:28:00.789Z,3.63
2023-04-18T23:30:27.964Z,5.43
2023-04-18T23:32:55.205Z,3.75
2023-04-18T23:35:22.428Z,3.33
2023-04-18T23:37:50.155Z,4.00
2023-04-18T23:40:17.294Z,3.65
2023-04-18T23:42:44.542Z,3.60
2023-04-18T23:45:11.941Z,3.58
2023-04-18T23:47:39.194Z,4.70
2023-04-18T23:50:06.640Z,6.22
2023-04-18T23:52:34.332Z,3.95
2023-04-18T23:55:01.783Z,3.58
2023-04-18T23:57:28.920Z,4.85
2023-04-18T23:59:59.129Z,3.65
